createdAt,value
2018-04-10T00:00:32.706Z,99626
2018-04-10T00:03:01.098Z,99627
2018-04-10T00:05:29.281Z,99620
2018-04-10T00:07:57.439Z,99619
2018-04-10T00:10:25.581Z,99617
2018-04-10T00:12:53.689Z,99622
2018-04-10T00:15:21.760Z,99625
2018-04-10T00:17:49.870Z,99612
2018-04-10T00:20:18.083Z,99615
2018-04-10T00:22:46.368Z,99612
2018-04-10T00:25:14.638Z,99615
2018-04-10T00:27:43.133Z,99608
2018-04-10T00:30:11.728Z,99607
2018-04-10T00:32:39.836Z,99602
2018-04-10T00:35:08.001Z,99592
2018-04-10T00:37:36.218Z,99605
2018-04-10T00:40:04.425Z,99591
2018-04-10T00:42:32.711Z,99596
2018-04-10T00:45:01.057Z,99593
2018-04-10T00:47:29.130Z,99589
2018-04-10T00:49:57.365Z,99583
2018-04-10T00:52:25.510Z,99589
2018-04-10T00:54:55.160Z,99584
2018-04-10T00:57:23.265Z,99589
2018-04-10T00:59:51.371Z,99601
2018-04-10T01:02:19.807Z,99594
2018-04-10T01:04:48.183Z,99587
2018-04-10T01:07:17.206Z,99590
2018-04-10T01:09:45.376Z,99584
2018-04-10T01:12:13.519Z,99584
2018-04-10T01:14:41.601Z,99597
2018-04-10T01:17:09.694Z,99592
2018-04-10T01:19:38.083Z,99590
2018-04-10T01:22:06.347Z,99587
2018-04-10T01:24:34.477Z,99589
2018-04-10T01:27:02.583Z,99590
2018-04-10T01:29:30.788Z,99598
2018-04-10T01:31:59.265Z,99596
2018-04-10T01:34:27.396Z,99589
2018-04-10T01:36:55.578Z,99587
2018-04-10T01:39:23.931Z,99593
2018-04-10T01:41:52.246Z,99597
2018-04-10T01:44:20.422Z,99587
2018-04-10T01:46:48.727Z,99588
2018-04-10T01:49:17.063Z,99587
2018-04-10T01:51:45.905Z,99589
2018-04-10T01:54:14.006Z,99588
2018-04-10T01:56:42.281Z,99585
2018-04-10T01:59:10.424Z,99599
2018-04-10T02:01:38.673Z,99604
2018-04-10T02:04:07.010Z,99600
2018-04-10T02:06:35.103Z,99602
2018-04-10T02:09:03.397Z,99597
2018-04-10T02:14:12.708Z,99598
2018-04-10T02:16:41.013Z,99603
2018-04-10T02:19:09.271Z,99592
2018-04-10T02:21:37.570Z,99593
2018-04-10T02:24:05.903Z,99595
2018-04-10T02:26:34.324Z,99591
2018-04-10T02:29:02.454Z,99590
2018-04-10T02:31:30.665Z,99598
2018-04-10T02:33:59.068Z,99599
2018-04-10T02:36:27.326Z,99593
2018-04-10T02:38:55.480Z,99590
2018-04-10T02:41:23.669Z,99587
2018-04-10T02:43:51.851Z,99596
2018-04-10T02:46:20.084Z,99597
2018-04-10T02:48:48.615Z,99598
2018-04-10T02:51:16.727Z,99605
2018-04-10T02:53:44.926Z,99607
2018-04-10T02:56:13.306Z,99610
2018-04-10T02:58:41.409Z,99609
2018-04-10T03:01:09.869Z,99610
2018-04-10T03:03:38.018Z,99614
2018-04-10T03:06:06.161Z,99605
2018-04-10T03:08:34.340Z,99609
2018-04-10T03:11:02.415Z,99605
2018-04-10T03:13:30.840Z,99613
2018-04-10T03:15:58.954Z,99617
2018-04-10T03:18:27.193Z,99610
2018-04-10T03:20:55.657Z,99619
2018-04-10T03:23:24.021Z,99612
2018-04-10T03:25:52.356Z,99617
2018-04-10T03:28:20.703Z,99618
2018-04-10T03:30:49.075Z,99616
2018-04-10T03:33:17.384Z,99626
2018-04-10T03:35:45.478Z,99615
2018-04-10T03:38:13.784Z,99626
2018-04-10T03:40:41.965Z,99615
2018-04-10T03:43:10.350Z,99618
2018-04-10T03:45:38.630Z,99620
2018-04-10T03:48:06.812Z,99609
2018-04-10T03:50:34.884Z,99620
2018-04-10T03:53:03.002Z,99611
2018-04-10T03:55:31.171Z,99610
2018-04-10T03:57:59.492Z,99618
2018-04-10T04:00:27.565Z,99612
2018-04-10T04:02:55.930Z,99627
2018-04-10T04:05:24.297Z,99620
2018-04-10T04:07:52.709Z,99622
2018-04-10T04:10:21.068Z,99624
2018-04-10T04:12:49.476Z,99627
2018-04-10T04:15:17.674Z,99617
2018-04-10T04:17:45.779Z,99626
2018-04-10T04:20:25.834Z,99615
2018-04-10T04:22:54.217Z,99611
2018-04-10T04:25:22.358Z,99612
2018-04-10T04:27:50.441Z,99614
2018-04-10T04:30:18.552Z,99614
2018-04-10T04:32:46.788Z,99617
2018-04-10T04:35:14.881Z,99621
2018-04-10T04:37:42.981Z,99608
2018-04-10T04:40:11.266Z,99602
2018-04-10T04:42:39.374Z,99613
2018-04-10T04:45:07.865Z,99615
2018-04-10T04:47:36.172Z,99612
2018-04-10T04:50:04.302Z,99617
2018-04-10T04:52:32.599Z,99619
2018-04-10T04:55:01.011Z,99625
2018-04-10T04:57:29.221Z,99620
2018-04-10T04:59:57.740Z,99620
2018-04-10T05:02:26.081Z,99623
2018-04-10T05:04:54.184Z,99625
2018-04-10T05:07:23.951Z,99614
2018-04-10T05:09:52.082Z,99626
2018-04-10T05:12:20.406Z,99623
2018-04-10T05:14:48.623Z,99622
2018-04-10T05:17:16.720Z,99624
2018-04-10T05:19:44.828Z,99628
2018-04-10T05:22:13.230Z,99627
2018-04-10T05:24:41.352Z,99634
2018-04-10T05:27:09.782Z,99634
2018-04-10T05:29:38.153Z,99637
2018-04-10T05:32:06.408Z,99640
2018-04-10T05:34:34.718Z,99641
2018-04-10T05:37:03.229Z,99637
2018-04-10T05:39:31.504Z,99645
2018-04-10T05:42:00.264Z,99646
2018-04-10T05:44:28.934Z,99643
2018-04-10T05:46:57.037Z,99658
2018-04-10T05:49:25.436Z,99641
2018-04-10T05:51:53.903Z,99640
2018-04-10T05:54:22.317Z,99641
2018-04-10T05:56:50.560Z,99653
2018-04-10T05:59:18.797Z,99637
2018-04-10T06:01:47.242Z,99642
2018-04-10T06:04:15.521Z,99647
2018-04-10T06:06:43.790Z,99643
2018-04-10T06:09:12.136Z,99648
2018-04-10T06:11:40.475Z,99651
2018-04-10T06:14:08.892Z,99656
2018-04-10T06:16:37.208Z,99655
2018-04-10T06:19:05.643Z,99652
2018-04-10T06:21:33.839Z,99646
2018-04-10T06:24:01.995Z,99647
2018-04-10T06:26:30.204Z,99656
2018-04-10T06:28:58.957Z,99657
2018-04-10T06:31:27.253Z,99650
2018-04-10T06:33:55.668Z,99648
2018-04-10T06:36:23.834Z,99644
2018-04-10T06:38:52.100Z,99655
2018-04-10T06:41:20.846Z,99648
2018-04-10T06:43:48.918Z,99656
2018-04-10T06:46:17.448Z,99650
2018-04-10T06:48:45.608Z,99637
2018-04-10T06:51:14.026Z,99633
2018-04-10T06:53:42.145Z,99640
2018-04-10T06:56:10.524Z,99629
2018-04-10T06:58:47.970Z,99636
2018-04-10T07:01:16.421Z,99639
2018-04-10T07:03:44.551Z,99631
2018-04-10T07:06:12.923Z,99633
2018-04-10T07:08:41.606Z,99621
2018-04-10T07:11:09.886Z,99636
2018-04-10T07:13:38.215Z,99642
2018-04-10T07:16:06.864Z,99639
2018-04-10T07:18:35.054Z,99640
2018-04-10T07:21:03.473Z,99636
2018-04-10T07:23:31.715Z,99642
2018-04-10T07:26:00.315Z,99647
2018-04-10T07:28:28.738Z,99647
2018-04-10T07:30:57.237Z,99645
2018-04-10T07:33:25.700Z,99657
2018-04-10T07:35:53.925Z,99665
2018-04-10T07:38:22.049Z,99659
2018-04-10T07:40:50.531Z,99667
2018-04-10T07:43:18.828Z,99679
2018-04-10T07:45:47.184Z,99675
2018-04-10T07:48:15.544Z,99685
2018-04-10T07:50:43.893Z,99679
2018-04-10T07:53:12.014Z,99674
2018-04-10T07:55:40.520Z,99681
2018-04-10T07:58:08.724Z,99671
2018-04-10T08:00:36.871Z,99665
2018-04-10T08:03:05.430Z,99674
2018-04-10T08:05:34.165Z,99667
2018-04-10T08:08:02.543Z,99660
2018-04-10T08:10:30.970Z,99657
2018-04-10T08:12:59.057Z,99664
2018-04-10T08:15:27.172Z,99666
2018-04-10T08:17:55.382Z,99660
2018-04-10T08:20:23.857Z,99666
2018-04-10T08:22:52.079Z,99660
2018-04-10T08:25:20.568Z,99672
2018-04-10T08:27:49.168Z,99666
2018-04-10T08:30:17.511Z,99669
2018-04-10T08:32:46.141Z,99673
2018-04-10T08:35:14.224Z,99677
2018-04-10T08:37:42.631Z,99675
2018-04-10T08:40:11.294Z,99676
2018-04-10T08:42:39.413Z,99675
2018-04-10T08:45:07.942Z,99670
2018-04-10T08:47:36.413Z,99662
2018-04-10T08:50:04.641Z,99673
2018-04-10T08:52:33.408Z,99674
2018-04-10T08:55:01.560Z,99680
2018-04-10T08:57:30.040Z,99670
2018-04-10T08:59:58.253Z,99667
2018-04-10T09:02:26.524Z,99660
2018-04-10T09:04:54.678Z,99663
2018-04-10T09:07:22.995Z,99670
2018-04-10T09:09:51.608Z,99663
2018-04-10T09:12:19.909Z,99670
2018-04-10T09:14:48.426Z,99665
2018-04-10T09:17:16.827Z,99661
2018-04-10T09:19:45.141Z,99661
2018-04-10T09:22:13.479Z,99663
2018-04-10T09:24:41.617Z,99663
2018-04-10T09:27:09.944Z,99659
2018-04-10T09:29:38.412Z,99659
2018-04-10T09:32:06.572Z,99660
2018-04-10T09:34:35.079Z,99660
2018-04-10T09:37:03.297Z,99660
2018-04-10T09:39:31.515Z,99665
2018-04-10T09:41:59.621Z,99666
2018-04-10T09:44:28.050Z,99668
2018-04-10T09:46:56.517Z,99661
2018-04-10T09:49:24.630Z,99655
2018-04-10T09:51:52.774Z,99663
2018-04-10T09:54:21.403Z,99669
2018-04-10T09:56:49.793Z,99665
2018-04-10T09:59:18.270Z,99674
2018-04-10T10:01:46.661Z,99672
2018-04-10T10:04:14.871Z,99676
2018-04-10T10:06:43.009Z,99668
2018-04-10T10:09:11.370Z,99668
2018-04-10T10:11:39.562Z,99669
2018-04-10T10:14:08.307Z,99661
2018-04-10T10:16:36.450Z,99666
2018-04-10T10:19:04.607Z,99670
2018-04-10T10:21:33.093Z,99670
2018-04-10T10:24:01.648Z,99671
2018-04-10T10:26:29.820Z,99684
2018-04-10T10:28:58.069Z,99668
2018-04-10T10:31:26.579Z,99670
2018-04-10T10:33:54.654Z,99670
2018-04-10T10:36:23.019Z,99670
2018-04-10T10:38:51.314Z,99668
2018-04-10T10:41:19.732Z,99671
2018-04-10T10:43:48.156Z,99661
2018-04-10T10:46:16.447Z,99674
2018-04-10T10:48:44.849Z,99666
2018-04-10T10:51:13.288Z,99671
2018-04-10T10:53:41.531Z,99668
2018-04-10T10:56:09.631Z,99667
2018-04-10T10:58:37.796Z,99664
2018-04-10T11:01:06.547Z,99672
2018-04-10T11:03:34.708Z,99671
2018-04-10T11:06:03.252Z,99677
2018-04-10T11:08:31.919Z,99672
2018-04-10T11:11:00.013Z,99668
2018-04-10T11:13:28.423Z,99679
2018-04-10T11:15:56.622Z,99672
2018-04-10T11:18:24.764Z,99664
2018-04-10T11:20:53.214Z,99672
2018-04-10T11:23:21.604Z,99674
2018-04-10T11:25:49.825Z,99664
2018-04-10T11:28:18.321Z,99672
2018-04-10T11:30:46.665Z,99663
2018-04-10T11:33:14.819Z,99674
2018-04-10T11:35:43.137Z,99664
2018-04-10T11:38:11.478Z,99668
2018-04-10T11:40:39.588Z,99672
2018-04-10T11:43:07.668Z,99663
2018-04-10T11:45:36.043Z,99670
2018-04-10T11:48:04.129Z,99662
2018-04-10T11:50:32.325Z,99659
2018-04-10T11:53:00.510Z,99663
2018-04-10T11:55:28.976Z,99671
2018-04-10T11:57:57.273Z,99668
2018-04-10T12:00:25.670Z,99669
2018-04-10T12:02:54.103Z,99675
2018-04-10T12:05:22.427Z,99673
2018-04-10T12:07:50.728Z,99668
2018-04-10T12:10:18.890Z,99667
2018-04-10T12:12:47.206Z,99670
2018-04-10T12:15:15.556Z,99673
2018-04-10T12:17:43.953Z,99673
2018-04-10T12:20:12.060Z,99666
2018-04-10T12:22:40.552Z,99662
2018-04-10T12:25:09.096Z,99664
2018-04-10T12:27:37.210Z,99667
2018-04-10T12:30:05.571Z,99662
2018-04-10T12:32:33.838Z,99686
2018-04-10T12:35:02.093Z,99674
2018-04-10T12:37:30.386Z,99675
2018-04-10T12:39:58.747Z,99664
2018-04-10T12:42:26.946Z,99668
2018-04-10T12:44:55.041Z,99671
2018-04-10T12:47:23.225Z,99670
2018-04-10T12:49:51.387Z,99665
2018-04-10T12:52:19.704Z,99672
2018-04-10T12:54:47.957Z,99662
2018-04-10T20:33:37.338Z,99854
2018-04-10T20:36:05.421Z,99852
2018-04-10T20:38:33.541Z,99858
2018-04-10T20:41:01.620Z,99853
2018-04-10T20:43:30.033Z,99855
2018-04-10T20:45:58.382Z,99857
2018-04-10T20:48:26.545Z,99865
2018-04-10T20:50:54.639Z,99865
2018-04-10T20:53:23.027Z,99862
2018-04-10T20:55:51.125Z,99883
2018-04-10T20:58:19.220Z,99879
2018-04-10T21:00:47.609Z,99879
2018-04-10T21:03:15.817Z,99878
2018-04-10T21:05:43.974Z,99887
2018-04-10T21:08:12.120Z,99892
2018-04-10T21:10:40.338Z,99883
2018-04-10T21:13:08.410Z,99886
2018-04-10T21:15:36.586Z,99900
2018-04-10T21:18:04.700Z,99897
2018-04-10T21:20:33.033Z,99910
2018-04-10T21:23:01.394Z,99916
2018-04-10T21:25:29.656Z,99920
2018-04-10T21:27:57.768Z,99918
2018-04-10T21:30:25.952Z,99912
2018-04-10T21:32:54.201Z,99914
2018-04-10T21:35:22.382Z,99925
2018-04-10T21:37:50.751Z,99930
2018-04-10T21:40:18.860Z,99928
2018-04-10T21:42:52.910Z,99939
2018-04-10T21:45:21.218Z,99938
2018-04-10T21:47:49.522Z,99951
2018-04-10T21:50:17.629Z,99942
2018-04-10T21:52:45.908Z,99953
2018-04-10T21:55:14.075Z,99958
2018-04-10T21:57:42.500Z,99958
2018-04-10T22:00:10.908Z,99963
2018-04-10T22:02:39.015Z,99960
2018-04-10T22:05:07.318Z,99970
2018-04-10T22:07:35.582Z,99974
2018-04-10T22:10:03.688Z,99973
2018-04-10T22:12:31.798Z,99981
2018-04-10T22:15:00.225Z,99967
2018-04-10T22:17:28.606Z,99987
2018-04-10T22:19:56.916Z,99994
2018-04-10T22:22:25.029Z,99987
2018-04-10T22:24:53.374Z,99992
2018-04-10T22:27:21.555Z,99999
2018-04-10T22:29:49.662Z,100003
2018-04-10T22:32:17.928Z,100010
2018-04-10T22:34:46.214Z,100003
2018-04-10T22:37:14.450Z,100003
2018-04-10T22:39:42.727Z,100000
2018-04-10T22:42:11.093Z,100009
2018-04-10T22:44:39.473Z,100002
2018-04-10T22:47:07.869Z,100004
2018-04-10T22:49:36.171Z,100013
2018-04-10T22:52:04.254Z,100020
2018-04-10T22:54:37.179Z,100022
2018-04-10T22:57:05.325Z,100033
2018-04-10T22:59:33.481Z,100027
2018-04-10T23:02:01.754Z,100013
2018-04-10T23:04:29.914Z,100014
2018-04-10T23:06:58.234Z,100020
2018-04-10T23:09:26.334Z,100026
2018-04-10T23:11:54.458Z,100035
2018-04-10T23:14:22.888Z,100024
2018-04-10T23:16:51.073Z,100025
2018-04-10T23:19:19.161Z,100027
2018-04-10T23:21:47.320Z,100015
2018-04-10T23:24:15.754Z,100040
2018-04-10T23:26:44.053Z,100029
2018-04-10T23:29:12.146Z,100054
2018-04-10T23:31:40.464Z,100055
2018-04-10T23:34:08.779Z,100062
2018-04-10T23:36:36.950Z,100068
2018-04-10T23:39:05.079Z,100075
2018-04-10T23:41:33.413Z,100066
2018-04-10T23:44:01.507Z,100063
2018-04-10T23:46:29.618Z,100047
2018-04-10T23:48:57.717Z,100041
2018-04-10T23:51:25.971Z,100046
2018-04-10T23:53:54.069Z,100051
2018-04-10T23:56:22.494Z,100031
2018-04-10T23:58:50.803Z,100041
